Aksa, Russia
Current Conditions -  °F | °C
As of 1:00 PM on Thursday 29 Jan 2015 (Local Time) from UIAA Reporting Station
Clear Clear  
Wind Chill: -19°   Ceiling: Unl
Heat Index: -14°   Visibility: 6mi
Dew Point: -24°   Wind: 4mph
Humidity: 44%   Direction: NA
Pressure: 30.24"   Gusts: NA
Location:  50.27°N, 113.27°E
Report Text: UIAA 290400Z VRB02MPS 9999 SKC M14/M24 Q1024 NOSIG RMK QFE70929CLRD70
Loading
Personal Weather Stations






























Interactive Weather Map New forecast layout! Learn more

10-Day Weather Forecast

Advertisements
Track Severe Weather on mobile